sensor_id;sensor_type;location;lat;lon;timestamp;P1;durP1;ratioP1;P2;durP2;ratioP2
17631;SDS011;8934;51.194;17.150;2023-04-25T00:01:21;3.30;;;1.80;;
17631;SDS011;8934;51.194;17.150;2023-04-25T00:04:09;3.05;;;2.63;;
17631;SDS011;8934;51.194;17.150;2023-04-25T00:06:58;4.45;;;1.80;;
17631;SDS011;8934;51.194;17.150;2023-04-25T00:09:48;2.22;;;1.85;;
17631;SDS011;8934;51.194;17.150;2023-04-25T00:12:36;2.90;;;2.10;;
17631;SDS011;8934;51.194;17.150;2023-04-25T00:15:26;2.88;;;1.70;;
17631;SDS011;8934;51.194;17.150;2023-04-25T00:18:16;2.55;;;2.03;;
17631;SDS011;8934;51.194;17.150;2023-04-25T00:21:04;1.88;;;1.65;;
17631;SDS011;8934;51.194;17.150;2023-04-25T00:23:53;2.92;;;1.75;;
17631;SDS011;8934;51.194;17.150;2023-04-25T00:26:41;3.28;;;1.58;;
17631;SDS011;8934;51.194;17.150;2023-04-25T00:29:30;1.98;;;1.70;;
17631;SDS011;8934;51.194;17.150;2023-04-25T00:32:18;3.95;;;2.00;;
17631;SDS011;8934;51.194;17.150;2023-04-25T00:35:06;2.45;;;1.58;;
17631;SDS011;8934;51.194;17.150;2023-04-25T00:37:54;2.40;;;1.77;;
17631;SDS011;8934;51.194;17.150;2023-04-25T00:40:42;4.53;;;1.92;;
17631;SDS011;8934;51.194;17.150;2023-04-25T00:43:30;2.53;;;1.85;;
17631;SDS011;8934;51.194;17.150;2023-04-25T00:46:19;2.88;;;2.10;;
17631;SDS011;8934;51.194;17.150;2023-04-25T00:49:08;2.83;;;1.70;;
17631;SDS011;8934;51.194;17.150;2023-04-25T00:52:01;2.15;;;1.70;;
17631;SDS011;8934;51.194;17.150;2023-04-25T00:54:49;2.38;;;1.55;;
17631;SDS011;8934;51.194;17.150;2023-04-25T00:57:37;1.70;;;1.60;;
17631;SDS011;8934;51.194;17.150;2023-04-25T01:00:25;1.98;;;1.50;;
17631;SDS011;8934;51.194;17.150;2023-04-25T01:03:13;1.73;;;1.40;;
17631;SDS011;8934;51.194;17.150;2023-04-25T01:06:04;2.33;;;1.80;;
17631;SDS011;8934;51.194;17.150;2023-04-25T01:08:51;1.73;;;1.55;;
17631;SDS011;8934;51.194;17.150;2023-04-25T01:11:39;2.35;;;1.95;;
17631;SDS011;8934;51.194;17.150;2023-04-25T01:14:28;1.80;;;1.55;;
17631;SDS011;8934;51.194;17.150;2023-04-25T01:17:16;2.58;;;2.10;;
17631;SDS011;8934;51.194;17.150;2023-04-25T01:20:05;2.70;;;1.60;;
17631;SDS011;8934;51.194;17.150;2023-04-25T01:22:56;2.30;;;1.60;;
17631;SDS011;8934;51.194;17.150;2023-04-25T01:25:44;3.20;;;1.75;;
17631;SDS011;8934;51.194;17.150;2023-04-25T01:28:32;2.53;;;1.65;;
17631;SDS011;8934;51.194;17.150;2023-04-25T01:31:21;2.40;;;2.08;;
17631;SDS011;8934;51.194;17.150;2023-04-25T01:34:09;3.53;;;1.70;;
17631;SDS011;8934;51.194;17.150;2023-04-25T01:36:57;1.52;;;1.42;;
17631;SDS011;8934;51.194;17.150;2023-04-25T01:39:48;2.30;;;1.63;;
17631;SDS011;8934;51.194;17.150;2023-04-25T01:42:36;2.70;;;2.00;;
17631;SDS011;8934;51.194;17.150;2023-04-25T01:45:26;3.60;;;1.80;;
17631;SDS011;8934;51.194;17.150;2023-04-25T01:48:14;2.45;;;1.90;;
17631;SDS011;8934;51.194;17.150;2023-04-25T01:51:02;2.92;;;2.22;;
17631;SDS011;8934;51.194;17.150;2023-04-25T01:53:50;2.38;;;1.77;;
17631;SDS011;8934;51.194;17.150;2023-04-25T01:56:40;2.30;;;2.00;;
17631;SDS011;8934;51.194;17.150;2023-04-25T01:59:29;2.05;;;1.83;;
17631;SDS011;8934;51.194;17.150;2023-04-25T02:02:36;4.37;;;2.40;;
17631;SDS011;8934;51.194;17.150;2023-04-25T02:05:34;3.70;;;2.17;;
17631;SDS011;8934;51.194;17.150;2023-04-25T02:08:24;4.60;;;2.60;;
17631;SDS011;8934;51.194;17.150;2023-04-25T02:11:13;4.38;;;2.78;;
17631;SDS011;8934;51.194;17.150;2023-04-25T02:14:09;4.03;;;2.90;;
17631;SDS011;8934;51.194;17.150;2023-04-25T02:17:03;3.28;;;2.78;;
17631;SDS011;8934;51.194;17.150;2023-04-25T02:19:51;3.72;;;2.47;;
17631;SDS011;8934;51.194;17.150;2023-04-25T02:22:39;4.72;;;3.35;;
17631;SDS011;8934;51.194;17.150;2023-04-25T02:25:27;2.83;;;2.42;;
17631;SDS011;8934;51.194;17.150;2023-04-25T02:28:16;4.78;;;2.90;;
17631;SDS011;8934;51.194;17.150;2023-04-25T02:31:05;4.35;;;2.47;;
17631;SDS011;8934;51.194;17.150;2023-04-25T02:33:52;3.55;;;2.83;;
17631;SDS011;8934;51.194;17.150;2023-04-25T02:36:40;5.05;;;3.30;;
17631;SDS011;8934;51.194;17.150;2023-04-25T02:39:28;4.63;;;3.58;;
17631;SDS011;8934;51.194;17.150;2023-04-25T02:42:16;3.50;;;2.65;;
17631;SDS011;8934;51.194;17.150;2023-04-25T02:45:04;4.38;;;3.03;;
17631;SDS011;8934;51.194;17.150;2023-04-25T02:47:54;3.90;;;3.00;;
17631;SDS011;8934;51.194;17.150;2023-04-25T02:50:42;4.85;;;2.72;;
17631;SDS011;8934;51.194;17.150;2023-04-25T02:53:30;6.45;;;3.03;;
17631;SDS011;8934;51.194;17.150;2023-04-25T02:56:18;4.85;;;3.08;;
17631;SDS011;8934;51.194;17.150;2023-04-25T02:59:05;5.45;;;3.33;;
17631;SDS011;8934;51.194;17.150;2023-04-25T03:01:54;4.55;;;3.28;;
17631;SDS011;8934;51.194;17.150;2023-04-25T03:04:44;6.32;;;4.22;;
17631;SDS011;8934;51.194;17.150;2023-04-25T03:07:32;4.97;;;3.35;;
17631;SDS011;8934;51.194;17.150;2023-04-25T03:10:19;5.30;;;3.63;;
17631;SDS011;8934;51.194;17.150;2023-04-25T03:13:07;6.50;;;4.50;;
17631;SDS011;8934;51.194;17.150;2023-04-25T03:15:55;5.60;;;4.13;;
17631;SDS011;8934;51.194;17.150;2023-04-25T03:18:44;5.25;;;4.18;;
17631;SDS011;8934;51.194;17.150;2023-04-25T03:21:33;6.00;;;4.20;;
17631;SDS011;8934;51.194;17.150;2023-04-25T03:24:21;6.03;;;3.80;;
17631;SDS011;8934;51.194;17.150;2023-04-25T03:27:11;5.47;;;4.55;;
17631;SDS011;8934;51.194;17.150;2023-04-25T03:29:59;12.25;;;6.80;;
17631;SDS011;8934;51.194;17.150;2023-04-25T03:32:47;17.73;;;7.90;;
17631;SDS011;8934;51.194;17.150;2023-04-25T03:35:35;13.35;;;7.28;;
17631;SDS011;8934;51.194;17.150;2023-04-25T03:38:24;9.88;;;7.00;;
17631;SDS011;8934;51.194;17.150;2023-04-25T03:41:12;7.95;;;5.18;;
17631;SDS011;8934;51.194;17.150;2023-04-25T03:44:03;10.85;;;6.07;;
17631;SDS011;8934;51.194;17.150;2023-04-25T03:46:51;9.00;;;5.60;;
17631;SDS011;8934;51.194;17.150;2023-04-25T03:49:39;8.30;;;5.38;;
17631;SDS011;8934;51.194;17.150;2023-04-25T03:52:26;9.40;;;5.10;;
17631;SDS011;8934;51.194;17.150;2023-04-25T03:55:15;7.03;;;4.35;;
17631;SDS011;8934;51.194;17.150;2023-04-25T03:58:03;7.38;;;5.22;;
17631;SDS011;8934;51.194;17.150;2023-04-25T04:00:51;10.55;;;4.82;;
17631;SDS011;8934;51.194;17.150;2023-04-25T04:03:39;6.85;;;4.85;;
17631;SDS011;8934;51.194;17.150;2023-04-25T04:06:28;8.18;;;4.97;;
17631;SDS011;8934;51.194;17.150;2023-04-25T04:09:26;7.55;;;4.65;;
17631;SDS011;8934;51.194;17.150;2023-04-25T04:12:17;8.63;;;4.90;;
17631;SDS011;8934;51.194;17.150;2023-04-25T04:15:05;7.30;;;4.75;;
17631;SDS011;8934;51.194;17.150;2023-04-25T04:17:54;8.73;;;5.13;;
17631;SDS011;8934;51.194;17.150;2023-04-25T04:20:41;7.95;;;4.88;;
17631;SDS011;8934;51.194;17.150;2023-04-25T04:23:29;6.68;;;4.82;;
17631;SDS011;8934;51.194;17.150;2023-04-25T04:26:17;7.95;;;4.50;;
17631;SDS011;8934;51.194;17.150;2023-04-25T04:29:23;10.73;;;5.30;;
17631;SDS011;8934;51.194;17.150;2023-04-25T04:32:26;8.52;;;4.72;;
17631;SDS011;8934;51.194;17.150;2023-04-25T04:35:16;8.23;;;5.35;;
17631;SDS011;8934;51.194;17.150;2023-04-25T04:38:04;9.13;;;5.40;;
17631;SDS011;8934;51.194;17.150;2023-04-25T04:40:53;8.23;;;5.13;;
17631;SDS011;8934;51.194;17.150;2023-04-25T04:43:51;6.63;;;4.82;;
17631;SDS011;8934;51.194;17.150;2023-04-25T04:46:56;7.32;;;5.28;;
17631;SDS011;8934;51.194;17.150;2023-04-25T04:50:19;7.25;;;5.05;;
17631;SDS011;8934;51.194;17.150;2023-04-25T04:53:29;9.68;;;5.70;;
17631;SDS011;8934;51.194;17.150;2023-04-25T04:56:33;11.52;;;6.20;;
17631;SDS011;8934;51.194;17.150;2023-04-25T04:59:39;9.60;;;6.47;;
17631;SDS011;8934;51.194;17.150;2023-04-25T05:03:03;9.60;;;5.40;;
17631;SDS011;8934;51.194;17.150;2023-04-25T05:06:17;9.85;;;5.28;;
17631;SDS011;8934;51.194;17.150;2023-04-25T05:09:26;10.30;;;5.20;;
17631;SDS011;8934;51.194;17.150;2023-04-25T05:12:52;7.55;;;5.15;;
17631;SDS011;8934;51.194;17.150;2023-04-25T05:15:52;9.85;;;5.75;;
17631;SDS011;8934;51.194;17.150;2023-04-25T05:18:59;10.35;;;5.72;;
17631;SDS011;8934;51.194;17.150;2023-04-25T05:22:16;7.38;;;5.22;;
17631;SDS011;8934;51.194;17.150;2023-04-25T05:25:27;8.10;;;5.30;;
17631;SDS011;8934;51.194;17.150;2023-04-25T05:31:26;9.23;;;5.72;;
17631;SDS011;8934;51.194;17.150;2023-04-25T05:34:27;10.55;;;5.15;;
17631;SDS011;8934;51.194;17.150;2023-04-25T05:37:18;9.32;;;4.72;;
17631;SDS011;8934;51.194;17.150;2023-04-25T05:40:13;8.88;;;4.93;;
17631;SDS011;8934;51.194;17.150;2023-04-25T05:43:00;8.23;;;5.68;;
17631;SDS011;8934;51.194;17.150;2023-04-25T05:46:20;9.15;;;5.40;;
17631;SDS011;8934;51.194;17.150;2023-04-25T05:49:42;7.55;;;5.28;;
17631;SDS011;8934;51.194;17.150;2023-04-25T05:52:51;8.27;;;5.18;;
17631;SDS011;8934;51.194;17.150;2023-04-25T05:55:47;9.20;;;5.88;;
17631;SDS011;8934;51.194;17.150;2023-04-25T06:04:18;8.60;;;5.72;;
17631;SDS011;8934;51.194;17.150;2023-04-25T06:07:07;10.05;;;5.80;;
17631;SDS011;8934;51.194;17.150;2023-04-25T06:09:55;8.98;;;5.68;;
17631;SDS011;8934;51.194;17.150;2023-04-25T06:12:44;9.13;;;5.30;;
17631;SDS011;8934;51.194;17.150;2023-04-25T06:15:33;8.07;;;5.55;;
17631;SDS011;8934;51.194;17.150;2023-04-25T06:18:21;7.22;;;5.10;;
17631;SDS011;8934;51.194;17.150;2023-04-25T06:21:09;6.75;;;4.85;;
17631;SDS011;8934;51.194;17.150;2023-04-25T06:23:58;7.50;;;5.50;;
17631;SDS011;8934;51.194;17.150;2023-04-25T06:26:46;7.07;;;5.43;;
17631;SDS011;8934;51.194;17.150;2023-04-25T06:29:34;8.77;;;5.60;;
17631;SDS011;8934;51.194;17.150;2023-04-25T06:32:21;6.68;;;5.03;;
17631;SDS011;8934;51.194;17.150;2023-04-25T06:35:09;8.40;;;5.15;;
17631;SDS011;8934;51.194;17.150;2023-04-25T06:37:57;10.40;;;6.43;;
17631;SDS011;8934;51.194;17.150;2023-04-25T06:40:50;8.60;;;4.78;;
17631;SDS011;8934;51.194;17.150;2023-04-25T06:43:37;8.10;;;5.45;;
17631;SDS011;8934;51.194;17.150;2023-04-25T06:46:48;8.55;;;5.25;;
17631;SDS011;8934;51.194;17.150;2023-04-25T06:49:37;6.82;;;4.80;;
17631;SDS011;8934;51.194;17.150;2023-04-25T06:52:27;8.40;;;4.80;;
17631;SDS011;8934;51.194;17.150;2023-04-25T06:55:15;6.90;;;5.28;;
17631;SDS011;8934;51.194;17.150;2023-04-25T06:58:29;9.85;;;5.00;;
17631;SDS011;8934;51.194;17.150;2023-04-25T07:01:24;8.57;;;4.55;;
17631;SDS011;8934;51.194;17.150;2023-04-25T07:04:12;7.93;;;5.20;;
17631;SDS011;8934;51.194;17.150;2023-04-25T07:07:06;6.18;;;4.93;;
17631;SDS011;8934;51.194;17.150;2023-04-25T07:10:10;6.90;;;4.68;;
17631;SDS011;8934;51.194;17.150;2023-04-25T07:12:57;11.52;;;5.40;;
17631;SDS011;8934;51.194;17.150;2023-04-25T07:15:46;6.60;;;4.78;;
17631;SDS011;8934;51.194;17.150;2023-04-25T07:18:36;6.55;;;4.47;;
17631;SDS011;8934;51.194;17.150;2023-04-25T07:21:24;6.65;;;3.92;;
17631;SDS011;8934;51.194;17.150;2023-04-25T07:24:13;7.03;;;4.82;;
17631;SDS011;8934;51.194;17.150;2023-04-25T07:27:04;6.65;;;4.45;;
17631;SDS011;8934;51.194;17.150;2023-04-25T07:30:08;7.28;;;4.25;;
17631;SDS011;8934;51.194;17.150;2023-04-25T07:32:58;6.07;;;4.03;;
17631;SDS011;8934;51.194;17.150;2023-04-25T07:35:46;7.65;;;3.95;;
17631;SDS011;8934;51.194;17.150;2023-04-25T07:38:35;8.57;;;4.53;;
17631;SDS011;8934;51.194;17.150;2023-04-25T07:41:23;5.43;;;3.90;;
17631;SDS011;8934;51.194;17.150;2023-04-25T07:44:11;4.82;;;3.45;;
17631;SDS011;8934;51.194;17.150;2023-04-25T07:46:59;6.93;;;3.90;;
17631;SDS011;8934;51.194;17.150;2023-04-25T07:49:51;8.18;;;3.65;;
17631;SDS011;8934;51.194;17.150;2023-04-25T07:52:39;5.40;;;3.17;;
17631;SDS011;8934;51.194;17.150;2023-04-25T07:55:42;5.10;;;3.17;;
17631;SDS011;8934;51.194;17.150;2023-04-25T07:58:34;5.50;;;3.53;;
17631;SDS011;8934;51.194;17.150;2023-04-25T08:01:24;5.88;;;3.53;;
17631;SDS011;8934;51.194;17.150;2023-04-25T08:04:19;7.55;;;3.78;;
17631;SDS011;8934;51.194;17.150;2023-04-25T08:07:13;4.25;;;3.00;;
17631;SDS011;8934;51.194;17.150;2023-04-25T08:10:08;4.07;;;2.83;;
17631;SDS011;8934;51.194;17.150;2023-04-25T08:12:56;4.80;;;2.70;;
17631;SDS011;8934;51.194;17.150;2023-04-25T08:15:44;6.72;;;2.65;;
17631;SDS011;8934;51.194;17.150;2023-04-25T08:18:31;5.47;;;2.90;;
17631;SDS011;8934;51.194;17.150;2023-04-25T08:21:20;6.75;;;3.35;;
17631;SDS011;8934;51.194;17.150;2023-04-25T08:24:09;8.68;;;2.80;;
17631;SDS011;8934;51.194;17.150;2023-04-25T08:26:58;7.70;;;4.03;;
17631;SDS011;8934;51.194;17.150;2023-04-25T08:29:47;8.57;;;3.20;;
17631;SDS011;8934;51.194;17.150;2023-04-25T08:32:35;7.78;;;4.47;;
17631;SDS011;8934;51.194;17.150;2023-04-25T08:35:37;7.60;;;4.13;;
17631;SDS011;8934;51.194;17.150;2023-04-25T08:38:25;7.75;;;4.35;;
17631;SDS011;8934;51.194;17.150;2023-04-25T08:41:14;6.18;;;3.60;;
17631;SDS011;8934;51.194;17.150;2023-04-25T08:44:03;3.50;;;2.80;;
17631;SDS011;8934;51.194;17.150;2023-04-25T08:46:52;8.52;;;3.33;;
17631;SDS011;8934;51.194;17.150;2023-04-25T08:49:46;5.88;;;4.00;;
17631;SDS011;8934;51.194;17.150;2023-04-25T08:52:37;6.03;;;3.42;;
17631;SDS011;8934;51.194;17.150;2023-04-25T08:55:30;7.90;;;4.13;;
17631;SDS011;8934;51.194;17.150;2023-04-25T08:58:20;8.68;;;3.85;;
17631;SDS011;8934;51.194;17.150;2023-04-25T09:01:08;6.38;;;4.32;;
17631;SDS011;8934;51.194;17.150;2023-04-25T09:04:03;7.15;;;3.85;;
17631;SDS011;8934;51.194;17.150;2023-04-25T09:06:52;11.07;;;5.38;;
17631;SDS011;8934;51.194;17.150;2023-04-25T09:09:40;7.63;;;5.10;;
17631;SDS011;8934;51.194;17.150;2023-04-25T09:12:28;6.75;;;4.32;;
17631;SDS011;8934;51.194;17.150;2023-04-25T09:15:19;6.15;;;4.85;;
17631;SDS011;8934;51.194;17.150;2023-04-25T09:18:33;8.75;;;4.55;;
17631;SDS011;8934;51.194;17.150;2023-04-25T09:21:22;5.95;;;4.70;;
17631;SDS011;8934;51.194;17.150;2023-04-25T09:24:09;8.65;;;4.28;;
17631;SDS011;8934;51.194;17.150;2023-04-25T09:26:57;7.13;;;4.75;;
17631;SDS011;8934;51.194;17.150;2023-04-25T09:29:44;10.57;;;5.03;;
17631;SDS011;8934;51.194;17.150;2023-04-25T09:32:34;7.88;;;4.93;;
17631;SDS011;8934;51.194;17.150;2023-04-25T09:35:23;9.57;;;5.15;;
17631;SDS011;8934;51.194;17.150;2023-04-25T09:38:14;7.40;;;4.68;;
17631;SDS011;8934;51.194;17.150;2023-04-25T09:41:09;7.15;;;5.13;;
17631;SDS011;8934;51.194;17.150;2023-04-25T09:44:02;8.43;;;5.60;;
17631;SDS011;8934;51.194;17.150;2023-04-25T09:46:53;7.43;;;5.50;;
17631;SDS011;8934;51.194;17.150;2023-04-25T09:49:46;9.73;;;5.90;;
17631;SDS011;8934;51.194;17.150;2023-04-25T09:52:34;7.72;;;5.20;;
17631;SDS011;8934;51.194;17.150;2023-04-25T09:55:37;8.27;;;5.65;;
17631;SDS011;8934;51.194;17.150;2023-04-25T09:58:25;6.10;;;4.40;;
17631;SDS011;8934;51.194;17.150;2023-04-25T10:01:19;5.90;;;4.53;;
17631;SDS011;8934;51.194;17.150;2023-04-25T10:04:22;5.88;;;4.22;;
17631;SDS011;8934;51.194;17.150;2023-04-25T10:07:22;5.55;;;4.30;;
17631;SDS011;8934;51.194;17.150;2023-04-25T10:10:12;4.57;;;3.90;;
17631;SDS011;8934;51.194;17.150;2023-04-25T10:13:00;7.80;;;4.70;;
17631;SDS011;8934;51.194;17.150;2023-04-25T10:15:50;7.15;;;4.85;;
17631;SDS011;8934;51.194;17.150;2023-04-25T10:18:40;5.47;;;4.20;;
17631;SDS011;8934;51.194;17.150;2023-04-25T10:21:28;6.90;;;4.63;;
17631;SDS011;8934;51.194;17.150;2023-04-25T10:24:20;5.13;;;3.53;;
17631;SDS011;8934;51.194;17.150;2023-04-25T10:27:08;6.30;;;3.80;;
17631;SDS011;8934;51.194;17.150;2023-04-25T10:30:00;7.78;;;4.75;;
17631;SDS011;8934;51.194;17.150;2023-04-25T10:32:50;3.58;;;3.22;;
17631;SDS011;8934;51.194;17.150;2023-04-25T10:35:37;3.92;;;3.17;;
17631;SDS011;8934;51.194;17.150;2023-04-25T10:38:26;4.60;;;2.78;;
17631;SDS011;8934;51.194;17.150;2023-04-25T10:41:15;3.22;;;2.50;;
17631;SDS011;8934;51.194;17.150;2023-04-25T10:44:06;4.50;;;2.30;;
17631;SDS011;8934;51.194;17.150;2023-04-25T10:46:56;2.55;;;1.80;;
17631;SDS011;8934;51.194;17.150;2023-04-25T10:49:44;3.60;;;2.15;;
17631;SDS011;8934;51.194;17.150;2023-04-25T10:52:32;2.35;;;1.50;;
17631;SDS011;8934;51.194;17.150;2023-04-25T10:55:20;4.07;;;1.88;;
17631;SDS011;8934;51.194;17.150;2023-04-25T10:58:10;3.75;;;1.80;;
17631;SDS011;8934;51.194;17.150;2023-04-25T11:00:57;4.15;;;2.53;;
17631;SDS011;8934;51.194;17.150;2023-04-25T11:03:45;2.95;;;1.90;;
17631;SDS011;8934;51.194;17.150;2023-04-25T11:06:37;3.47;;;2.30;;
17631;SDS011;8934;51.194;17.150;2023-04-25T11:09:38;4.18;;;2.55;;
17631;SDS011;8934;51.194;17.150;2023-04-25T11:12:27;5.78;;;2.70;;
17631;SDS011;8934;51.194;17.150;2023-04-25T11:15:17;3.60;;;2.47;;
17631;SDS011;8934;51.194;17.150;2023-04-25T11:18:05;4.65;;;3.00;;
17631;SDS011;8934;51.194;17.150;2023-04-25T11:20:56;4.25;;;2.35;;
17631;SDS011;8934;51.194;17.150;2023-04-25T11:23:44;2.58;;;2.08;;
17631;SDS011;8934;51.194;17.150;2023-04-25T11:26:33;2.78;;;1.92;;
17631;SDS011;8934;51.194;17.150;2023-04-25T11:29:23;2.88;;;2.10;;
17631;SDS011;8934;51.194;17.150;2023-04-25T11:32:15;2.67;;;1.85;;
17631;SDS011;8934;51.194;17.150;2023-04-25T11:35:06;2.80;;;1.63;;
17631;SDS011;8934;51.194;17.150;2023-04-25T11:37:54;1.98;;;1.70;;
17631;SDS011;8934;51.194;17.150;2023-04-25T11:40:41;2.20;;;1.70;;
17631;SDS011;8934;51.194;17.150;2023-04-25T11:43:29;3.40;;;1.15;;
17631;SDS011;8934;51.194;17.150;2023-04-25T11:46:17;2.92;;;1.50;;
17631;SDS011;8934;51.194;17.150;2023-04-25T11:49:07;2.08;;;1.80;;
17631;SDS011;8934;51.194;17.150;2023-04-25T11:51:55;3.70;;;1.55;;
17631;SDS011;8934;51.194;17.150;2023-04-25T11:54:42;3.45;;;1.50;;
17631;SDS011;8934;51.194;17.150;2023-04-25T11:57:32;4.50;;;1.98;;
17631;SDS011;8934;51.194;17.150;2023-04-25T12:00:20;1.77;;;1.65;;
17631;SDS011;8934;51.194;17.150;2023-04-25T12:03:09;2.33;;;1.60;;
17631;SDS011;8934;51.194;17.150;2023-04-25T12:06:03;2.10;;;1.30;;
17631;SDS011;8934;51.194;17.150;2023-04-25T12:09:01;2.33;;;1.17;;
17631;SDS011;8934;51.194;17.150;2023-04-25T12:11:52;1.52;;;1.42;;
17631;SDS011;8934;51.194;17.150;2023-04-25T12:14:40;3.53;;;1.20;;
17631;SDS011;8934;51.194;17.150;2023-04-25T12:17:34;3.13;;;1.33;;
17631;SDS011;8934;51.194;17.150;2023-04-25T12:20:24;1.90;;;1.20;;
17631;SDS011;8934;51.194;17.150;2023-04-25T12:23:13;2.00;;;1.27;;
17631;SDS011;8934;51.194;17.150;2023-04-25T12:26:01;3.53;;;1.30;;
17631;SDS011;8934;51.194;17.150;2023-04-25T12:28:49;2.97;;;1.80;;
17631;SDS011;8934;51.194;17.150;2023-04-25T12:31:38;2.97;;;1.48;;
17631;SDS011;8934;51.194;17.150;2023-04-25T12:34:26;1.73;;;1.20;;
17631;SDS011;8934;51.194;17.150;2023-04-25T12:37:13;2.78;;;1.50;;
17631;SDS011;8934;51.194;17.150;2023-04-25T12:40:03;2.38;;;1.50;;
17631;SDS011;8934;51.194;17.150;2023-04-25T12:42:52;3.15;;;1.58;;
17631;SDS011;8934;51.194;17.150;2023-04-25T12:45:40;2.28;;;1.50;;
17631;SDS011;8934;51.194;17.150;2023-04-25T12:48:27;5.28;;;2.22;;
17631;SDS011;8934;51.194;17.150;2023-04-25T12:51:15;2.28;;;1.40;;
17631;SDS011;8934;51.194;17.150;2023-04-25T12:54:03;1.50;;;1.40;;
17631;SDS011;8934;51.194;17.150;2023-04-25T12:56:54;2.17;;;1.25;;
17631;SDS011;8934;51.194;17.150;2023-04-25T12:59:41;1.92;;;1.58;;
17631;SDS011;8934;51.194;17.150;2023-04-25T13:02:29;2.83;;;1.42;;
17631;SDS011;8934;51.194;17.150;2023-04-25T13:05:16;3.13;;;1.42;;
17631;SDS011;8934;51.194;17.150;2023-04-25T13:08:04;1.83;;;1.35;;
17631;SDS011;8934;51.194;17.150;2023-04-25T13:10:52;2.95;;;1.63;;
17631;SDS011;8934;51.194;17.150;2023-04-25T13:13:40;2.38;;;1.60;;
17631;SDS011;8934;51.194;17.150;2023-04-25T13:16:28;2.78;;;1.50;;
17631;SDS011;8934;51.194;17.150;2023-04-25T13:19:16;5.50;;;1.52;;
17631;SDS011;8934;51.194;17.150;2023-04-25T13:22:03;2.95;;;1.75;;
17631;SDS011;8934;51.194;17.150;2023-04-25T13:24:52;3.60;;;1.85;;
17631;SDS011;8934;51.194;17.150;2023-04-25T13:27:39;4.25;;;1.80;;
17631;SDS011;8934;51.194;17.150;2023-04-25T13:30:28;4.32;;;2.13;;
17631;SDS011;8934;51.194;17.150;2023-04-25T13:33:17;2.72;;;1.58;;
17631;SDS011;8934;51.194;17.150;2023-04-25T13:36:04;3.10;;;1.85;;
17631;SDS011;8934;51.194;17.150;2023-04-25T13:38:52;2.97;;;1.77;;
17631;SDS011;8934;51.194;17.150;2023-04-25T13:41:40;4.97;;;1.98;;
17631;SDS011;8934;51.194;17.150;2023-04-25T13:44:27;5.00;;;2.05;;
17631;SDS011;8934;51.194;17.150;2023-04-25T13:47:16;2.05;;;1.85;;
17631;SDS011;8934;51.194;17.150;2023-04-25T13:50:04;2.03;;;1.50;;
17631;SDS011;8934;51.194;17.150;2023-04-25T13:52:53;2.35;;;1.60;;
17631;SDS011;8934;51.194;17.150;2023-04-25T13:55:41;2.72;;;1.50;;
17631;SDS011;8934;51.194;17.150;2023-04-25T13:58:28;2.75;;;1.70;;
17631;SDS011;8934;51.194;17.150;2023-04-25T14:01:16;4.82;;;1.90;;
17631;SDS011;8934;51.194;17.150;2023-04-25T14:04:05;3.13;;;1.65;;
17631;SDS011;8934;51.194;17.150;2023-04-25T14:06:52;7.47;;;1.88;;
17631;SDS011;8934;51.194;17.150;2023-04-25T14:09:41;4.93;;;1.83;;
17631;SDS011;8934;51.194;17.150;2023-04-25T14:12:28;4.15;;;1.70;;
17631;SDS011;8934;51.194;17.150;2023-04-25T14:15:16;1.85;;;1.50;;
17631;SDS011;8934;51.194;17.150;2023-04-25T14:18:03;3.05;;;1.73;;
17631;SDS011;8934;51.194;17.150;2023-04-25T14:20:52;3.83;;;1.60;;
17631;SDS011;8934;51.194;17.150;2023-04-25T14:23:40;1.95;;;1.75;;
17631;SDS011;8934;51.194;17.150;2023-04-25T14:26:28;2.65;;;1.77;;
17631;SDS011;8934;51.194;17.150;2023-04-25T14:29:16;4.57;;;2.10;;
17631;SDS011;8934;51.194;17.150;2023-04-25T14:32:04;6.25;;;2.35;;
17631;SDS011;8934;51.194;17.150;2023-04-25T14:34:52;7.80;;;4.43;;
17631;SDS011;8934;51.194;17.150;2023-04-25T14:37:41;4.50;;;2.40;;
17631;SDS011;8934;51.194;17.150;2023-04-25T14:40:28;3.20;;;2.55;;
17631;SDS011;8934;51.194;17.150;2023-04-25T14:43:16;4.03;;;2.50;;
17631;SDS011;8934;51.194;17.150;2023-04-25T14:46:03;3.75;;;2.75;;
17631;SDS011;8934;51.194;17.150;2023-04-25T14:48:52;3.00;;;2.60;;
17631;SDS011;8934;51.194;17.150;2023-04-25T14:51:42;3.08;;;2.17;;
17631;SDS011;8934;51.194;17.150;2023-04-25T14:54:30;4.32;;;2.17;;
17631;SDS011;8934;51.194;17.150;2023-04-25T14:57:18;2.85;;;2.13;;
17631;SDS011;8934;51.194;17.150;2023-04-25T15:00:06;4.53;;;1.90;;
17631;SDS011;8934;51.194;17.150;2023-04-25T15:02:55;5.95;;;2.28;;
17631;SDS011;8934;51.194;17.150;2023-04-25T15:05:43;3.80;;;2.20;;
17631;SDS011;8934;51.194;17.150;2023-04-25T15:08:30;2.33;;;2.10;;
17631;SDS011;8934;51.194;17.150;2023-04-25T15:11:20;3.55;;;1.92;;
17631;SDS011;8934;51.194;17.150;2023-04-25T15:14:07;4.72;;;2.10;;
17631;SDS011;8934;51.194;17.150;2023-04-25T15:16:55;2.70;;;1.60;;
17631;SDS011;8934;51.194;17.150;2023-04-25T15:19:43;2.47;;;1.50;;
17631;SDS011;8934;51.194;17.150;2023-04-25T15:22:30;1.77;;;1.67;;
17631;SDS011;8934;51.194;17.150;2023-04-25T15:25:18;2.70;;;1.60;;
17631;SDS011;8934;51.194;17.150;2023-04-25T15:28:07;3.40;;;1.67;;
17631;SDS011;8934;51.194;17.150;2023-04-25T15:30:54;2.85;;;1.80;;
17631;SDS011;8934;51.194;17.150;2023-04-25T15:33:43;2.97;;;1.70;;
17631;SDS011;8934;51.194;17.150;2023-04-25T15:36:31;2.28;;;1.77;;
17631;SDS011;8934;51.194;17.150;2023-04-25T15:39:18;3.95;;;2.72;;
17631;SDS011;8934;51.194;17.150;2023-04-25T15:42:06;3.50;;;1.92;;
17631;SDS011;8934;51.194;17.150;2023-04-25T15:44:55;4.28;;;2.05;;
17631;SDS011;8934;51.194;17.150;2023-04-25T15:47:43;5.55;;;2.40;;
17631;SDS011;8934;51.194;17.150;2023-04-25T15:50:31;4.30;;;2.40;;
17631;SDS011;8934;51.194;17.150;2023-04-25T15:53:19;4.70;;;2.38;;
17631;SDS011;8934;51.194;17.150;2023-04-25T15:56:07;5.13;;;2.70;;
17631;SDS011;8934;51.194;17.150;2023-04-25T15:58:54;6.32;;;3.00;;
17631;SDS011;8934;51.194;17.150;2023-04-25T16:01:43;6.53;;;3.38;;
17631;SDS011;8934;51.194;17.150;2023-04-25T16:04:31;5.05;;;3.53;;
17631;SDS011;8934;51.194;17.150;2023-04-25T16:07:20;3.92;;;3.25;;
17631;SDS011;8934;51.194;17.150;2023-04-25T16:10:08;4.82;;;3.25;;
17631;SDS011;8934;51.194;17.150;2023-04-25T16:12:56;4.82;;;3.20;;
17631;SDS011;8934;51.194;17.150;2023-04-25T16:15:44;5.00;;;3.03;;
17631;SDS011;8934;51.194;17.150;2023-04-25T16:18:33;3.58;;;2.60;;
17631;SDS011;8934;51.194;17.150;2023-04-25T16:21:21;4.03;;;2.80;;
17631;SDS011;8934;51.194;17.150;2023-04-25T16:24:09;5.93;;;2.85;;
17631;SDS011;8934;51.194;17.150;2023-04-25T16:26:56;5.43;;;2.80;;
17631;SDS011;8934;51.194;17.150;2023-04-25T16:29:44;4.82;;;2.53;;
17631;SDS011;8934;51.194;17.150;2023-04-25T16:32:34;3.60;;;2.15;;
17631;SDS011;8934;51.194;17.150;2023-04-25T16:35:24;4.60;;;2.17;;
17631;SDS011;8934;51.194;17.150;2023-04-25T16:38:15;3.03;;;2.25;;
17631;SDS011;8934;51.194;17.150;2023-04-25T16:41:02;3.13;;;2.00;;
17631;SDS011;8934;51.194;17.150;2023-04-25T16:43:55;5.05;;;1.83;;
17631;SDS011;8934;51.194;17.150;2023-04-25T16:46:42;5.93;;;2.00;;
17631;SDS011;8934;51.194;17.150;2023-04-25T16:49:30;3.78;;;2.42;;
17631;SDS011;8934;51.194;17.150;2023-04-25T16:52:19;2.78;;;1.95;;
17631;SDS011;8934;51.194;17.150;2023-04-25T16:55:08;2.25;;;1.85;;
17631;SDS011;8934;51.194;17.150;2023-04-25T16:57:55;5.05;;;2.30;;
17631;SDS011;8934;51.194;17.150;2023-04-25T17:00:43;3.50;;;2.08;;
17631;SDS011;8934;51.194;17.150;2023-04-25T17:03:31;4.13;;;2.45;;
17631;SDS011;8934;51.194;17.150;2023-04-25T17:06:20;5.32;;;2.03;;
17631;SDS011;8934;51.194;17.150;2023-04-25T17:09:09;3.75;;;2.05;;
17631;SDS011;8934;51.194;17.150;2023-04-25T17:11:56;2.63;;;1.98;;
17631;SDS011;8934;51.194;17.150;2023-04-25T17:14:44;2.75;;;1.80;;
17631;SDS011;8934;51.194;17.150;2023-04-25T17:17:32;4.47;;;2.40;;